Scheibbs, Austria
Current Conditions -  °F | °C
As of 4:50 AM on Monday 24 Nov 2014 (Local Time) from LOWL Reporting Station
Overcast Overcast  
Wind Chill: 35°   Ceiling: 900
Heat Index: 41°   Visibility: 5mi
Dew Point: 37°   Wind: 9mph
Humidity: 87%   Direction: 80°E
Pressure: 30.24"   Gusts: NA
Location:  48.01°N, 15.17°E
Report Text: LOWL 240250Z 08008KT 8000 FEW008 OVC009 05/03 Q1024 NOSIG
Loading
Personal Weather Stations






























Interactive Weather Map New forecast layout! Learn more

10-Day Weather Forecast

Advertisements
Track Severe Weather on mobile